Time;durP1;ratioP1;P1;durP2;ratioP2;P2;SDS_P1;SDS_P2;PMS_P1;PMS_P2;Temp;Humidity;BMP_temperature;BMP_pressure;BME280_temperature;BME280_humidity;BME280_pressure;Samples;Min_cycle;Max_cycle;Signal;HPM_P1;HPM_P2
2023/07/17 00:01:02;;;;;;;9.43;4.80;;;;;;;;;;5138095;27;20465;-62
2023/07/17 00:03:29;;;;;;;11.07;5.07;;;;;;;;;;5138123;27;20444;-62
2023/07/17 00:05:58;;;;;;;8.70;4.50;;;;;;;;;;5137227;27;20883;-62
2023/07/17 00:08:27;;;;;;;9.97;5.20;;;;;;;;;;5137238;27;20449;-63
2023/07/17 00:10:54;;;;;;;5.97;4.97;;;;;;;;;;5137527;27;20444;-62
2023/07/17 00:13:21;;;;;;;6.60;5.10;;;;;;;;;;5137073;27;20433;-62
2023/07/17 00:15:49;;;;;;;8.80;4.70;;;;;;;;;;5137113;27;20437;-62
2023/07/17 00:18:16;;;;;;;8.23;4.80;;;;;;;;;;5136983;27;20434;-62
2023/07/17 00:20:44;;;;;;;5.77;5.00;;;;;;;;;;5137348;27;20460;-62
2023/07/17 00:23:11;;;;;;;5.10;4.60;;;;;;;;;;5136978;27;20436;-62
2023/07/17 00:25:39;;;;;;;6.20;5.27;;;;;;;;;;5136923;27;20434;-62
2023/07/17 00:28:06;;;;;;;7.37;4.60;;;;;;;;;;5136360;27;20440;-62
2023/07/17 00:30:34;;;;;;;7.63;5.43;;;;;;;;;;5136545;27;20442;-62
2023/07/17 00:33:01;;;;;;;7.93;5.00;;;;;;;;;;5136396;27;20440;-62
2023/07/17 00:35:28;;;;;;;8.13;6.77;;;;;;;;;;5136339;27;20448;-62
2023/07/17 00:37:55;;;;;;;6.13;4.90;;;;;;;;;;5136312;27;20446;-62
2023/07/17 00:40:22;;;;;;;7.97;4.70;;;;;;;;;;5136374;27;20916;-62
2023/07/17 00:42:51;;;;;;;8.70;4.80;;;;;;;;;;5136957;27;20476;-63
2023/07/17 00:45:18;;;;;;;5.83;5.03;;;;;;;;;;5136238;27;20540;-62
2023/07/17 00:47:45;;;;;;;6.10;4.80;;;;;;;;;;5136121;27;20929;-62
2023/07/17 00:50:12;;;;;;;7.77;5.10;;;;;;;;;;5136894;27;20986;-62
2023/07/17 00:52:40;;;;;;;7.70;4.60;;;;;;;;;;5135979;27;20451;-62
2023/07/17 00:55:08;;;;;;;6.93;4.27;;;;;;;;;;5136737;27;20448;-62
2023/07/17 00:57:35;;;;;;;6.60;4.80;;;;;;;;;;5136225;27;20484;-62
2023/07/17 01:00:05;;;;;;;6.73;4.87;;;;;;;;;;5135672;27;20476;-62
2023/07/17 01:02:33;;;;;;;6.10;4.70;;;;;;;;;;5136089;27;20486;-62
2023/07/17 01:05:00;;;;;;;5.73;5.00;;;;;;;;;;5135833;27;20441;-62
2023/07/17 01:07:27;;;;;;;8.37;4.33;;;;;;;;;;5136304;27;20436;-62
2023/07/17 01:09:54;;;;;;;7.90;4.70;;;;;;;;;;5136414;27;20438;-62
2023/07/17 01:12:21;;;;;;;7.13;4.07;;;;;;;;;;5135696;27;20454;-62
2023/07/17 01:14:48;;;;;;;5.13;4.27;;;;;;;;;;5135564;27;20933;-62
2023/07/17 01:17:17;;;;;;;6.20;4.23;;;;;;;;;;5135659;27;20443;-62
2023/07/17 01:19:44;;;;;;;7.20;4.53;;;;;;;;;;5135781;27;20511;-62
2023/07/17 01:22:14;;;;;;;6.43;4.17;;;;;;;;;;5135769;27;20836;-62
2023/07/17 01:24:42;;;;;;;6.10;3.57;;;;;;;;;;5135978;27;20447;-62
2023/07/17 01:27:10;;;;;;;3.43;2.80;;;;;;;;;;5135379;27;20444;-62
2023/07/17 01:29:37;;;;;;;4.13;3.73;;;;;;;;;;5135687;27;20453;-62
2023/07/17 01:32:04;;;;;;;4.50;3.60;;;;;;;;;;5135982;27;20832;-62
2023/07/17 01:34:32;;;;;;;4.50;3.63;;;;;;;;;;5135688;27;20461;-62
2023/07/17 01:36:59;;;;;;;5.17;4.10;;;;;;;;;;5135562;27;20439;-62
2023/07/17 01:39:26;;;;;;;7.93;4.30;;;;;;;;;;5135520;27;20441;-62
2023/07/17 01:41:54;;;;;;;4.40;4.00;;;;;;;;;;5136268;27;20471;-62
2023/07/17 01:44:22;;;;;;;4.60;3.30;;;;;;;;;;5135056;27;20979;-62
2023/07/17 01:46:49;;;;;;;10.60;4.70;;;;;;;;;;5135088;27;20438;-62
2023/07/17 01:49:16;;;;;;;8.10;4.60;;;;;;;;;;5134987;27;20527;-62
2023/07/17 01:51:43;;;;;;;7.80;4.40;;;;;;;;;;5135033;27;20444;-62
2023/07/17 01:54:10;;;;;;;6.00;4.87;;;;;;;;;;5134757;27;20446;-62
2023/07/17 01:56:37;;;;;;;12.10;4.57;;;;;;;;;;5134929;27;20441;-63
2023/07/17 01:59:06;;;;;;;5.17;3.70;;;;;;;;;;5134934;27;20951;-62
2023/07/17 02:01:34;;;;;;;5.47;4.10;;;;;;;;;;5135090;27;20481;-61
2023/07/17 02:04:01;;;;;;;7.20;4.33;;;;;;;;;;5134564;27;20997;-62
2023/07/17 02:06:28;;;;;;;4.90;4.23;;;;;;;;;;5135407;27;20453;-62
2023/07/17 02:08:55;;;;;;;13.63;4.80;;;;;;;;;;5135403;27;20438;-62
2023/07/17 02:11:26;;;;;;;4.70;4.10;;;;;;;;;;5135384;27;20438;-62
2023/07/17 02:13:54;;;;;;;10.27;4.50;;;;;;;;;;5134509;27;20468;-62
2023/07/17 02:16:22;;;;;;;8.37;4.70;;;;;;;;;;5134522;27;20950;-62
2023/07/17 02:18:49;;;;;;;6.00;4.40;;;;;;;;;;5134681;27;20448;-62
2023/07/17 02:21:16;;;;;;;6.73;4.37;;;;;;;;;;5134979;27;20458;-62
2023/07/17 02:23:44;;;;;;;5.60;4.47;;;;;;;;;;5134674;27;20446;-63
2023/07/17 02:26:11;;;;;;;5.00;4.00;;;;;;;;;;5134637;27;20451;-62
2023/07/17 02:28:38;;;;;;;9.00;4.43;;;;;;;;;;5134380;27;20791;-63
2023/07/17 02:31:05;;;;;;;12.90;5.07;;;;;;;;;;5134261;27;20448;-62
2023/07/17 02:33:34;;;;;;;6.00;4.30;;;;;;;;;;5134392;27;20447;-63
2023/07/17 02:36:03;;;;;;;5.30;4.13;;;;;;;;;;5134177;27;20470;-63
2023/07/17 02:38:30;;;;;;;5.83;3.87;;;;;;;;;;5134145;27;20904;-62
2023/07/17 02:40:57;;;;;;;6.27;4.80;;;;;;;;;;5134077;27;20933;-62
2023/07/17 02:43:24;;;;;;;6.60;4.10;;;;;;;;;;5134027;27;20479;-62
2023/07/17 02:45:50;;;;;;;10.20;4.60;;;;;;;;;;5134328;27;20439;-62
2023/07/17 02:48:17;;;;;;;14.83;4.40;;;;;;;;;;5134813;27;20452;-62
2023/07/17 02:50:46;;;;;;;6.50;4.83;;;;;;;;;;5134251;27;20437;-62
2023/07/17 02:53:13;;;;;;;7.70;4.40;;;;;;;;;;5134169;27;20439;-62
2023/07/17 02:55:40;;;;;;;6.30;4.30;;;;;;;;;;5133930;27;20443;-62
2023/07/17 02:58:07;;;;;;;7.13;4.83;;;;;;;;;;5134176;27;20921;-62
2023/07/17 03:00:35;;;;;;;12.90;4.27;;;;;;;;;;5133914;27;20475;-62
2023/07/17 03:03:02;;;;;;;6.83;3.70;;;;;;;;;;5134159;27;20471;-62
2023/07/17 03:05:29;;;;;;;8.47;4.20;;;;;;;;;;5134103;27;20434;-62
2023/07/17 03:07:58;;;;;;;8.10;4.57;;;;;;;;;;5137692;27;20531;-61
2023/07/17 03:10:25;;;;;;;9.10;4.50;;;;;;;;;;5138014;27;20442;-62
2023/07/17 03:12:52;;;;;;;10.80;5.00;;;;;;;;;;5138098;27;20449;-62
2023/07/17 03:15:19;;;;;;;11.70;5.10;;;;;;;;;;5138177;27;20852;-62
2023/07/17 03:17:46;;;;;;;6.50;3.90;;;;;;;;;;5137995;27;20431;-62
2023/07/17 03:20:14;;;;;;;6.20;4.57;;;;;;;;;;5138194;27;20447;-62
2023/07/17 03:22:42;;;;;;;8.60;5.00;;;;;;;;;;5138200;27;20474;-62
2023/07/17 03:25:10;;;;;;;5.27;4.73;;;;;;;;;;5138198;27;20450;-62
2023/07/17 03:27:38;;;;;;;9.83;4.50;;;;;;;;;;5137708;27;20446;-62
2023/07/17 03:30:06;;;;;;;7.70;4.60;;;;;;;;;;5138271;27;20458;-62
2023/07/17 03:32:34;;;;;;;9.10;4.70;;;;;;;;;;5138523;27;20449;-62
2023/07/17 03:35:02;;;;;;;7.90;5.07;;;;;;;;;;5137906;27;20788;-62
2023/07/17 03:37:29;;;;;;;5.67;4.77;;;;;;;;;;5137606;27;20485;-63
2023/07/17 03:39:56;;;;;;;7.13;4.10;;;;;;;;;;5137757;27;20438;-63
2023/07/17 03:42:24;;;;;;;9.20;4.83;;;;;;;;;;5138007;27;20478;-62
2023/07/17 03:44:52;;;;;;;8.93;5.20;;;;;;;;;;5137826;27;20445;-62
2023/07/17 03:47:19;;;;;;;8.53;4.30;;;;;;;;;;5137705;27;20442;-62
2023/07/17 03:49:46;;;;;;;6.40;3.63;;;;;;;;;;5136280;27;20442;-63
2023/07/17 03:52:13;;;;;;;7.30;4.67;;;;;;;;;;5136451;27;20448;-63
2023/07/17 03:54:41;;;;;;;5.77;4.77;;;;;;;;;;5136046;27;20446;-63
2023/07/17 03:57:08;;;;;;;6.23;4.23;;;;;;;;;;5136506;27;20525;-63
2023/07/17 03:59:49;;;;;;;6.77;4.30;;;;;;;;;;5135627;27;20481;-64
2023/07/17 04:02:16;;;;;;;8.47;5.30;;;;;;;;;;5135453;27;20537;-63
2023/07/17 04:04:43;;;;;;;7.30;4.60;;;;;;;;;;5134632;28;20459;-64
2023/07/17 04:07:11;;;;;;;10.60;4.70;;;;;;;;;;5135207;28;20445;-63
2023/07/17 04:09:38;;;;;;;5.67;4.40;;;;;;;;;;5135533;28;20441;-63
2023/07/17 04:12:06;;;;;;;12.30;5.07;;;;;;;;;;5135024;28;20445;-64
2023/07/17 04:14:33;;;;;;;10.43;5.40;;;;;;;;;;5135148;28;20449;-64
2023/07/17 04:17:03;;;;;;;12.27;4.70;;;;;;;;;;5134928;27;20449;-63
2023/07/17 04:19:31;;;;;;;5.60;4.90;;;;;;;;;;5134978;28;20425;-63
2023/07/17 04:21:58;;;;;;;9.63;4.77;;;;;;;;;;5134773;28;20454;-63
2023/07/17 04:24:25;;;;;;;8.63;5.30;;;;;;;;;;5135391;28;20507;-63
2023/07/17 04:26:54;;;;;;;8.53;4.70;;;;;;;;;;5135346;28;20458;-63
2023/07/17 04:29:21;;;;;;;8.50;5.27;;;;;;;;;;5135186;28;20454;-63
2023/07/17 04:31:48;;;;;;;8.13;5.23;;;;;;;;;;5134964;28;20447;-63
2023/07/17 04:34:17;;;;;;;8.63;4.80;;;;;;;;;;5135181;28;20441;-63
2023/07/17 04:36:44;;;;;;;10.80;4.57;;;;;;;;;;5135293;28;20442;-63
2023/07/17 04:39:12;;;;;;;7.10;5.80;;;;;;;;;;5135056;28;20796;-63
2023/07/17 04:41:39;;;;;;;9.77;4.70;;;;;;;;;;5135095;28;20438;-63
2023/07/17 04:44:07;;;;;;;9.93;4.43;;;;;;;;;;5135414;28;20569;-63
2023/07/17 04:46:35;;;;;;;9.90;4.90;;;;;;;;;;5134806;28;20440;-63
2023/07/17 04:49:03;;;;;;;5.73;4.00;;;;;;;;;;5134861;28;20524;-63
2023/07/17 04:51:32;;;;;;;7.80;5.30;;;;;;;;;;5134634;28;20444;-63
2023/07/17 04:53:59;;;;;;;7.40;5.30;;;;;;;;;;5134778;28;20457;-63
2023/07/17 04:56:26;;;;;;;11.40;6.00;;;;;;;;;;5135057;28;20449;-63
2023/07/17 04:58:53;;;;;;;14.07;5.43;;;;;;;;;;5095834;27;1080128;-63
2023/07/17 05:01:21;;;;;;;11.23;5.37;;;;;;;;;;5135951;27;20546;-63
2023/07/17 05:03:48;;;;;;;8.20;4.93;;;;;;;;;;5135898;27;20505;-63
2023/07/17 05:06:15;;;;;;;8.30;5.10;;;;;;;;;;5135997;27;20795;-62
2023/07/17 05:08:43;;;;;;;9.57;5.13;;;;;;;;;;5135927;27;20515;-63
2023/07/17 05:11:11;;;;;;;9.77;5.57;;;;;;;;;;5135930;27;20445;-63
2023/07/17 05:13:38;;;;;;;9.10;4.63;;;;;;;;;;5134997;27;20533;-63
2023/07/17 05:16:05;;;;;;;11.60;5.17;;;;;;;;;;5135760;27;20798;-63
2023/07/17 05:18:33;;;;;;;5.17;4.67;;;;;;;;;;5135420;27;20449;-63
2023/07/17 05:21:00;;;;;;;7.77;5.07;;;;;;;;;;5135265;27;20447;-63
2023/07/17 05:23:27;;;;;;;7.87;5.23;;;;;;;;;;5135631;27;20476;-63
2023/07/17 05:25:56;;;;;;;8.03;4.80;;;;;;;;;;5135576;27;20445;-63
2023/07/17 05:28:24;;;;;;;8.00;5.27;;;;;;;;;;5135474;27;20778;-63
2023/07/17 05:30:52;;;;;;;8.80;4.67;;;;;;;;;;5134899;27;20440;-63
2023/07/17 05:33:20;;;;;;;9.07;5.23;;;;;;;;;;5135512;27;20452;-63
2023/07/17 05:35:47;;;;;;;9.63;5.33;;;;;;;;;;5135710;27;20435;-62
2023/07/17 05:38:14;;;;;;;11.43;5.07;;;;;;;;;;5135120;27;20436;-62
2023/07/17 05:40:41;;;;;;;6.30;4.63;;;;;;;;;;5135607;27;20798;-63
2023/07/17 05:43:10;;;;;;;8.00;4.53;;;;;;;;;;5135300;27;20483;-63
2023/07/17 05:45:37;;;;;;;6.33;4.30;;;;;;;;;;5135891;27;20445;-63
2023/07/17 05:48:04;;;;;;;6.53;4.80;;;;;;;;;;5135479;27;20449;-62
2023/07/17 05:50:32;;;;;;;7.23;4.30;;;;;;;;;;5134813;27;20445;-62
2023/07/17 05:52:59;;;;;;;6.30;4.27;;;;;;;;;;5134820;27;20448;-62
2023/07/17 05:55:26;;;;;;;7.20;4.10;;;;;;;;;;5134941;27;20439;-62
2023/07/17 05:57:53;;;;;;;6.83;4.40;;;;;;;;;;5134994;27;20456;-63
2023/07/17 06:00:22;;;;;;;8.60;4.33;;;;;;;;;;5135654;27;20471;-62
2023/07/17 06:02:49;;;;;;;6.07;4.40;;;;;;;;;;5134630;27;20797;-62
2023/07/17 06:05:17;;;;;;;11.40;5.43;;;;;;;;;;5134978;27;20436;-63
2023/07/17 06:07:44;;;;;;;8.67;4.80;;;;;;;;;;5135099;27;20522;-62
2023/07/17 06:10:12;;;;;;;6.57;3.93;;;;;;;;;;5134566;27;20436;-62
2023/07/17 06:12:39;;;;;;;9.30;5.17;;;;;;;;;;5134437;27;20968;-62
2023/07/17 06:15:07;;;;;;;7.10;4.33;;;;;;;;;;5134795;27;20444;-62
2023/07/17 06:17:37;;;;;;;6.40;4.17;;;;;;;;;;5134985;27;20448;-62
2023/07/17 06:20:05;;;;;;;6.70;4.20;;;;;;;;;;5134974;27;20767;-62
2023/07/17 06:22:32;;;;;;;9.20;4.53;;;;;;;;;;5134296;27;20938;-63
2023/07/17 06:24:59;;;;;;;5.73;4.03;;;;;;;;;;5134609;27;20830;-62
2023/07/17 06:27:27;;;;;;;6.23;4.10;;;;;;;;;;5134638;27;20434;-62
2023/07/17 06:29:54;;;;;;;7.47;4.23;;;;;;;;;;5134283;27;20799;-62
2023/07/17 06:32:21;;;;;;;6.50;3.70;;;;;;;;;;5134763;27;20455;-63
2023/07/17 06:34:50;;;;;;;6.73;4.53;;;;;;;;;;5134835;27;20449;-62
2023/07/17 06:37:17;;;;;;;10.90;4.70;;;;;;;;;;5134026;27;20448;-62
2023/07/17 06:39:44;;;;;;;6.17;5.10;;;;;;;;;;5134381;27;20788;-63
2023/07/17 06:42:11;;;;;;;8.30;4.67;;;;;;;;;;5133909;27;20945;-63
2023/07/17 06:44:38;;;;;;;6.80;4.20;;;;;;;;;;5134776;27;20811;-62
2023/07/17 06:47:06;;;;;;;10.67;4.90;;;;;;;;;;5134170;27;20460;-63
2023/07/17 06:49:33;;;;;;;7.07;4.17;;;;;;;;;;5134046;27;20486;-62
2023/07/17 06:52:02;;;;;;;8.53;6.30;;;;;;;;;;5134251;27;20542;-62
2023/07/17 06:54:29;;;;;;;8.80;4.90;;;;;;;;;;5134295;28;20820;-62
2023/07/17 06:56:56;;;;;;;8.23;5.33;;;;;;;;;;5134254;28;20796;-62
2023/07/17 06:59:26;;;;;;;8.60;5.40;;;;;;;;;;5134076;28;20571;-62
2023/07/17 07:01:54;;;;;;;8.77;5.57;;;;;;;;;;5134207;28;20446;-62
2023/07/17 07:04:21;;;;;;;8.73;4.70;;;;;;;;;;5133904;28;20468;-63
2023/07/17 07:06:48;;;;;;;9.33;5.37;;;;;;;;;;5134093;28;20440;-63
2023/07/17 07:09:17;;;;;;;6.97;4.87;;;;;;;;;;5134105;28;20447;-62
2023/07/17 07:11:44;;;;;;;10.47;5.83;;;;;;;;;;5134037;28;20531;-62
2023/07/17 07:14:11;;;;;;;10.70;5.17;;;;;;;;;;5133625;28;20454;-63
2023/07/17 07:16:38;;;;;;;10.60;5.20;;;;;;;;;;5133799;28;20446;-63
2023/07/17 07:19:06;;;;;;;7.93;5.67;;;;;;;;;;5133627;28;20448;-62
2023/07/17 07:21:33;;;;;;;8.37;5.37;;;;;;;;;;5133670;28;20469;-63
2023/07/17 07:24:02;;;;;;;9.67;5.00;;;;;;;;;;5133540;28;20466;-62
2023/07/17 07:26:32;;;;;;;11.57;5.60;;;;;;;;;;5134361;28;20453;-63
2023/07/17 07:28:59;;;;;;;9.20;4.87;;;;;;;;;;5134257;28;20456;-62
2023/07/17 07:31:26;;;;;;;10.83;5.97;;;;;;;;;;5133639;28;20531;-63
2023/07/17 07:33:53;;;;;;;10.37;5.90;;;;;;;;;;5134137;28;20813;-63
2023/07/17 07:36:22;;;;;;;6.43;5.13;;;;;;;;;;5133732;28;20937;-63
2023/07/17 07:38:49;;;;;;;7.17;5.27;;;;;;;;;;5133859;28;20448;-62
2023/07/17 07:41:17;;;;;;;9.87;5.60;;;;;;;;;;5134017;28;20518;-63
2023/07/17 07:43:46;;;;;;;11.67;5.73;;;;;;;;;;5133704;28;20567;-63
2023/07/17 07:46:13;;;;;;;13.53;5.93;;;;;;;;;;5133437;28;20441;-63
2023/07/17 07:48:40;;;;;;;8.83;6.00;;;;;;;;;;5133339;28;20442;-63
2023/07/17 07:51:07;;;;;;;8.17;5.57;;;;;;;;;;5133418;28;20446;-63
2023/07/17 07:53:35;;;;;;;11.93;6.60;;;;;;;;;;5136836;27;20446;-63
2023/07/17 07:56:02;;;;;;;9.40;5.93;;;;;;;;;;5137425;27;20501;-62
2023/07/17 07:58:29;;;;;;;8.67;6.80;;;;;;;;;;5137296;27;20448;-63
2023/07/17 08:00:57;;;;;;;10.23;6.57;;;;;;;;;;5137525;27;20439;-63
2023/07/17 08:03:24;;;;;;;11.00;6.93;;;;;;;;;;5137622;27;20579;-63
2023/07/17 08:05:52;;;;;;;10.83;7.27;;;;;;;;;;5137591;27;20440;-62
2023/07/17 08:08:19;;;;;;;8.23;5.63;;;;;;;;;;5137176;27;20445;-63
2023/07/17 08:10:46;;;;;;;9.73;6.60;;;;;;;;;;5137286;27;20440;-63
2023/07/17 08:13:13;;;;;;;11.37;6.60;;;;;;;;;;5137105;27;20447;-63
2023/07/17 08:15:40;;;;;;;13.73;6.53;;;;;;;;;;5137231;27;20444;-62
2023/07/17 08:18:09;;;;;;;11.97;6.80;;;;;;;;;;5137000;27;20446;-63
2023/07/17 08:20:36;;;;;;;10.93;7.07;;;;;;;;;;5137060;27;20472;-62
2023/07/17 08:23:03;;;;;;;10.23;7.23;;;;;;;;;;5136650;27;20523;-62
2023/07/17 08:25:30;;;;;;;9.13;6.40;;;;;;;;;;5136755;27;20550;-63
2023/07/17 08:27:58;;;;;;;9.33;6.10;;;;;;;;;;5136661;27;20450;-63
2023/07/17 08:30:25;;;;;;;13.67;6.00;;;;;;;;;;5135793;27;20439;-63
2023/07/17 08:32:52;;;;;;;6.93;5.50;;;;;;;;;;5136356;27;20446;-63
2023/07/17 08:35:21;;;;;;;4.83;4.30;;;;;;;;;;5136380;27;20459;-63
2023/07/17 08:37:48;;;;;;;8.10;5.10;;;;;;;;;;5137028;27;20433;-63
2023/07/17 08:40:15;;;;;;;6.40;4.77;;;;;;;;;;5136247;27;20445;-62
2023/07/17 08:42:45;;;;;;;9.10;5.20;;;;;;;;;;5136284;27;20445;-64
2023/07/17 08:45:13;;;;;;;8.20;4.37;;;;;;;;;;5136369;27;20472;-63
2023/07/17 08:47:40;;;;;;;5.87;4.60;;;;;;;;;;5136505;27;20449;-63
2023/07/17 08:50:09;;;;;;;5.70;4.40;;;;;;;;;;5136082;27;20440;-63
2023/07/17 08:52:37;;;;;;;8.63;4.40;;;;;;;;;;5136014;27;20474;-62
2023/07/17 08:55:05;;;;;;;8.17;4.43;;;;;;;;;;5135878;27;20441;-62
2023/07/17 08:57:33;;;;;;;8.10;4.87;;;;;;;;;;5136322;27;20456;-62
2023/07/17 09:00:00;;;;;;;7.73;5.00;;;;;;;;;;5136361;27;20473;-63
2023/07/17 09:02:27;;;;;;;15.73;4.83;;;;;;;;;;5136129;27;20440;-62
2023/07/17 09:04:54;;;;;;;5.63;4.23;;;;;;;;;;5134734;27;20480;-62
2023/07/17 09:07:21;;;;;;;6.90;4.63;;;;;;;;;;5136261;27;20436;-62
2023/07/17 09:10:10;;;;;;;6.43;4.30;;;;;;;;;;5136234;27;20452;-62
2023/07/17 09:12:37;;;;;;;7.47;4.93;;;;;;;;;;5136008;27;20455;-62
2023/07/17 09:15:04;;;;;;;5.87;4.17;;;;;;;;;;5136808;27;20445;-63
2023/07/17 09:17:34;;;;;;;5.03;4.50;;;;;;;;;;5137850;27;20433;-63
2023/07/17 09:20:08;;;;;;;7.00;3.70;;;;;;;;;;5136842;27;20926;-62
2023/07/17 09:22:36;;;;;;;5.83;4.60;;;;;;;;;;5136975;27;20449;-63
2023/07/17 09:25:05;;;;;;;6.07;4.20;;;;;;;;;;5137486;27;20488;-63
2023/07/17 09:27:39;;;;;;;6.53;4.30;;;;;;;;;;5136208;27;20437;-63
2023/07/17 09:30:11;;;;;;;5.17;4.40;;;;;;;;;;5136925;27;20520;-63
2023/07/17 09:32:38;;;;;;;5.00;3.63;;;;;;;;;;5135751;27;20437;-62
2023/07/17 09:35:08;;;;;;;6.00;4.70;;;;;;;;;;5135990;27;20441;-63
2023/07/17 09:37:36;;;;;;;7.00;3.60;;;;;;;;;;5136352;27;20422;-63
2023/07/17 09:40:08;;;;;;;6.20;4.10;;;;;;;;;;5136184;27;20442;-62
2023/07/17 09:42:35;;;;;;;6.53;3.53;;;;;;;;;;5136123;27;20422;-62
2023/07/17 09:45:03;;;;;;;5.10;3.73;;;;;;;;;;5136346;27;20503;-62
2023/07/17 09:47:31;;;;;;;4.63;3.97;;;;;;;;;;5135911;27;20441;-62
2023/07/17 09:49:59;;;;;;;7.50;4.70;;;;;;;;;;5136185;27;20441;-63
2023/07/17 09:52:27;;;;;;;7.60;3.90;;;;;;;;;;5136156;27;20445;-62
2023/07/17 09:54:57;;;;;;;6.03;3.60;;;;;;;;;;5136242;27;20448;-63
2023/07/17 09:57:27;;;;;;;7.00;4.20;;;;;;;;;;5135088;27;21004;-62
2023/07/17 09:59:56;;;;;;;4.97;3.53;;;;;;;;;;5135374;27;20465;-63
2023/07/17 10:02:25;;;;;;;8.40;3.80;;;;;;;;;;5135469;27;20447;-63
2023/07/17 10:04:55;;;;;;;6.77;3.60;;;;;;;;;;5134531;27;20478;-63
2023/07/17 10:07:22;;;;;;;6.23;3.33;;;;;;;;;;5135226;27;20498;-63
2023/07/17 10:09:50;;;;;;;5.67;3.43;;;;;;;;;;5135215;27;20805;-63
2023/07/17 10:12:17;;;;;;;13.93;3.87;;;;;;;;;;5134877;27;20441;-62
2023/07/17 10:14:47;;;;;;;6.40;4.30;;;;;;;;;;5133910;27;20453;-63
2023/07/17 10:17:30;;;;;;;5.90;3.60;;;;;;;;;;5134875;27;20532;-63
2023/07/17 10:19:58;;;;;;;2.70;2.50;;;;;;;;;;5134295;27;20911;-63
2023/07/17 10:22:28;;;;;;;3.93;3.03;;;;;;;;;;5134699;27;20988;-63
2023/07/17 10:24:56;;;;;;;4.20;2.77;;;;;;;;;;5134426;27;20481;-63
2023/07/17 10:27:37;;;;;;;7.67;3.60;;;;;;;;;;5134923;27;20518;-63
2023/07/17 10:30:22;;;;;;;5.20;3.20;;;;;;;;;;5134137;27;20450;-63
2023/07/17 10:32:51;;;;;;;5.30;3.00;;;;;;;;;;5134267;27;20426;-63
2023/07/17 10:35:21;;;;;;;3.63;3.33;;;;;;;;;;5134607;27;20446;-63
2023/07/17 10:37:49;;;;;;;4.60;2.80;;;;;;;;;;5134589;27;20430;-63
2023/07/17 10:40:28;;;;;;;4.60;3.10;;;;;;;;;;5134469;27;20451;-63
2023/07/17 10:42:56;;;;;;;6.10;3.10;;;;;;;;;;5134348;27;20517;-63
2023/07/17 10:45:35;;;;;;;5.43;3.20;;;;;;;;;;5133943;27;20470;-63
2023/07/17 10:48:02;;;;;;;4.33;2.73;;;;;;;;;;5134071;27;20420;-63
2023/07/17 10:50:29;;;;;;;3.50;2.50;;;;;;;;;;5133881;27;20933;-63
2023/07/17 10:53:02;;;;;;;5.10;2.93;;;;;;;;;;5133916;27;20951;-62
2023/07/17 10:55:29;;;;;;;4.43;2.77;;;;;;;;;;5134475;28;20828;-63
2023/07/17 10:57:58;;;;;;;3.70;3.10;;;;;;;;;;5134210;28;20449;-63
2023/07/17 11:00:26;;;;;;;4.47;2.70;;;;;;;;;;5134379;28;20480;-63
2023/07/17 11:02:53;;;;;;;3.87;2.90;;;;;;;;;;5134368;28;20436;-63
2023/07/17 11:05:21;;;;;;;5.47;3.17;;;;;;;;;;5134283;28;20484;-64
2023/07/17 11:07:48;;;;;;;7.07;3.43;;;;;;;;;;5134330;28;20442;-62
2023/07/17 11:10:15;;;;;;;4.03;2.70;;;;;;;;;;5133997;28;20534;-63
2023/07/17 11:12:42;;;;;;;4.83;3.20;;;;;;;;;;5133702;28;20445;-63
2023/07/17 11:15:14;;;;;;;5.33;3.43;;;;;;;;;;5133751;28;21022;-62
2023/07/17 11:17:42;;;;;;;5.23;3.00;;;;;;;;;;5133986;28;20481;-63
2023/07/17 11:20:10;;;;;;;6.50;3.53;;;;;;;;;;5133750;28;20443;-63
2023/07/17 11:22:40;;;;;;;8.10;3.33;;;;;;;;;;5133640;28;20444;-62
2023/07/17 11:25:08;;;;;;;7.17;3.40;;;;;;;;;;5133726;28;20573;-62
2023/07/17 11:27:36;;;;;;;4.00;2.80;;;;;;;;;;5134980;27;20442;-62
2023/07/17 11:30:04;;;;;;;6.43;3.23;;;;;;;;;;5138150;27;20455;-63
2023/07/17 11:32:31;;;;;;;5.53;3.03;;;;;;;;;;5138034;27;20910;-63
2023/07/17 11:35:01;;;;;;;3.10;2.83;;;;;;;;;;5138410;27;20532;-65
2023/07/17 11:37:31;;;;;;;8.80;3.63;;;;;;;;;;5137859;27;20429;-66
2023/07/17 11:39:59;;;;;;;7.70;3.80;;;;;;;;;;5137798;27;20449;-65
2023/07/17 11:42:26;;;;;;;4.60;3.30;;;;;;;;;;5137333;27;20470;-64
2023/07/17 11:44:59;;;;;;;5.00;2.80;;;;;;;;;;5138198;27;20469;-65
2023/07/17 11:47:27;;;;;;;6.50;3.40;;;;;;;;;;5137508;27;20434;-65
2023/07/17 11:49:54;;;;;;;5.60;3.00;;;;;;;;;;5136377;27;20437;-65
2023/07/17 11:52:23;;;;;;;5.93;3.87;;;;;;;;;;5136656;27;20437;-66
2023/07/17 11:54:50;;;;;;;4.30;3.10;;;;;;;;;;5136432;27;20438;-65
2023/07/17 11:57:17;;;;;;;6.73;3.53;;;;;;;;;;5136080;27;20443;-66
2023/07/17 11:59:48;;;;;;;6.87;3.37;;;;;;;;;;5136481;27;20477;-66
2023/07/17 12:02:15;;;;;;;6.13;3.80;;;;;;;;;;5136580;27;20439;-65
2023/07/17 12:04:42;;;;;;;5.47;3.40;;;;;;;;;;5136467;27;20469;-66
2023/07/17 12:07:18;;;;;;;4.07;2.90;;;;;;;;;;5136309;27;20440;-66
2023/07/17 12:09:47;;;;;;;6.10;3.17;;;;;;;;;;5136812;27;20771;-65
2023/07/17 12:12:14;;;;;;;3.53;2.47;;;;;;;;;;5136096;27;20453;-65
2023/07/17 12:14:41;;;;;;;3.63;2.97;;;;;;;;;;5136267;27;20447;-66
2023/07/17 12:17:09;;;;;;;4.00;2.70;;;;;;;;;;5136395;27;20440;-65
2023/07/17 12:19:36;;;;;;;4.40;3.20;;;;;;;;;;5136401;27;20441;-65
2023/07/17 12:22:03;;;;;;;4.00;2.97;;;;;;;;;;5135899;27;20527;-65
2023/07/17 12:24:30;;;;;;;5.50;2.90;;;;;;;;;;5136147;27;20439;-65
2023/07/17 12:26:59;;;;;;;4.10;2.30;;;;;;;;;;5136175;27;20776;-65
2023/07/17 12:29:26;;;;;;;2.90;2.40;;;;;;;;;;5136644;27;20454;-65
2023/07/17 12:31:53;;;;;;;3.20;2.43;;;;;;;;;;5136145;27;20454;-66
2023/07/17 12:34:20;;;;;;;3.60;2.57;;;;;;;;;;5136219;27;20441;-65
2023/07/17 12:36:47;;;;;;;3.50;3.20;;;;;;;;;;5136461;27;20467;-64
2023/07/17 12:39:16;;;;;;;6.67;2.53;;;;;;;;;;5135995;27;20440;-65
2023/07/17 12:41:43;;;;;;;5.07;2.70;;;;;;;;;;5135804;27;20440;-66
2023/07/17 12:44:12;;;;;;;5.00;3.43;;;;;;;;;;5136305;27;20439;-65
2023/07/17 12:46:39;;;;;;;4.03;2.63;;;;;;;;;;5135964;27;20475;-66
2023/07/17 12:49:07;;;;;;;4.43;2.60;;;;;;;;;;5135886;27;20445;-65
2023/07/17 12:51:35;;;;;;;3.30;3.00;;;;;;;;;;5135984;27;20796;-66
2023/07/17 12:54:02;;;;;;;6.50;2.80;;;;;;;;;;5135919;27;20447;-65
2023/07/17 12:56:29;;;;;;;4.50;2.33;;;;;;;;;;5136233;27;20502;-66
2023/07/17 12:58:57;;;;;;;7.73;2.33;;;;;;;;;;5135690;27;20472;-66
2023/07/17 13:01:25;;;;;;;4.37;2.53;;;;;;;;;;5135907;27;20850;-66
2023/07/17 13:03:52;;;;;;;2.43;2.23;;;;;;;;;;5135835;27;20446;-64
2023/07/17 13:06:20;;;;;;;4.47;2.37;;;;;;;;;;5135997;27;20563;-65
2023/07/17 13:08:47;;;;;;;2.97;2.60;;;;;;;;;;5135890;27;20436;-65
2023/07/17 13:11:15;;;;;;;5.03;2.60;;;;;;;;;;5135867;27;20468;-65
2023/07/17 13:13:42;;;;;;;4.60;2.80;;;;;;;;;;5135305;27;20434;-65
2023/07/17 13:16:09;;;;;;;4.53;2.63;;;;;;;;;;5136029;27;20457;-65
2023/07/17 13:18:38;;;;;;;2.47;2.27;;;;;;;;;;5135299;27;20445;-65
2023/07/17 13:21:05;;;;;;;4.30;2.70;;;;;;;;;;5135507;27;20447;-65
2023/07/17 13:23:32;;;;;;;2.70;1.90;;;;;;;;;;5135342;27;20433;-65
2023/07/17 13:25:59;;;;;;;3.33;2.23;;;;;;;;;;5135246;27;21011;-65
2023/07/17 13:28:27;;;;;;;2.77;2.23;;;;;;;;;;5135675;27;20449;-65
2023/07/17 13:30:54;;;;;;;3.20;2.70;;;;;;;;;;5135473;27;20820;-64
2023/07/17 13:33:21;;;;;;;3.43;2.57;;;;;;;;;;5134724;27;20444;-66
2023/07/17 13:35:50;;;;;;;7.40;2.73;;;;;;;;;;5135825;27;20797;-65
2023/07/17 13:38:17;;;;;;;3.23;2.60;;;;;;;;;;5135298;27;20442;-66
2023/07/17 13:40:44;;;;;;;3.00;2.13;;;;;;;;;;5134693;27;20445;-66
2023/07/17 13:43:12;;;;;;;5.47;2.97;;;;;;;;;;5135366;27;20444;-64
2023/07/17 13:45:39;;;;;;;3.47;2.93;;;;;;;;;;5135312;27;20541;-65
2023/07/17 13:48:07;;;;;;;3.77;2.43;;;;;;;;;;5135111;27;20445;-65
2023/07/17 13:50:34;;;;;;;3.93;2.20;;;;;;;;;;5134551;27;20439;-65
2023/07/17 13:53:02;;;;;;;3.70;2.90;;;;;;;;;;5135122;27;20451;-65
2023/07/17 13:55:30;;;;;;;4.10;2.60;;;;;;;;;;5134835;27;20926;-65
2023/07/17 13:57:57;;;;;;;3.67;2.27;;;;;;;;;;5134924;27;20469;-66
2023/07/17 14:00:26;;;;;;;2.50;2.30;;;;;;;;;;5134645;27;20495;-66
2023/07/17 14:02:53;;;;;;;6.80;2.60;;;;;;;;;;5134884;27;20493;-66
2023/07/17 14:05:20;;;;;;;2.73;2.27;;;;;;;;;;5134605;27;20920;-66
2023/07/17 14:07:47;;;;;;;2.37;2.10;;;;;;;;;;5134963;27;20466;-65
2023/07/17 14:10:16;;;;;;;4.40;2.50;;;;;;;;;;5134805;27;20541;-65
2023/07/17 14:12:43;;;;;;;5.37;2.73;;;;;;;;;;5135081;27;20436;-65
2023/07/17 14:15:10;;;;;;;2.60;2.37;;;;;;;;;;5134333;27;20443;-65
2023/07/17 14:17:38;;;;;;;3.23;2.50;;;;;;;;;;5134865;27;20436;-65
2023/07/17 14:20:05;;;;;;;3.47;2.40;;;;;;;;;;5134644;27;20451;-65
2023/07/17 14:22:32;;;;;;;3.30;2.87;;;;;;;;;;5134764;27;20798;-65
2023/07/17 14:25:00;;;;;;;3.93;2.67;;;;;;;;;;5134587;27;20805;-65
2023/07/17 14:27:28;;;;;;;6.23;2.97;;;;;;;;;;5134511;27;20471;-65
2023/07/17 14:29:55;;;;;;;3.20;2.90;;;;;;;;;;5134651;27;20452;-65
2023/07/17 14:32:22;;;;;;;4.27;3.37;;;;;;;;;;5134719;27;20493;-65
2023/07/17 14:34:50;;;;;;;5.00;3.60;;;;;;;;;;5134481;27;20440;-65
2023/07/17 14:37:17;;;;;;;6.27;3.57;;;;;;;;;;5134523;27;20444;-65
2023/07/17 14:39:44;;;;;;;3.83;2.93;;;;;;;;;;5134411;27;20439;-65
2023/07/17 14:42:11;;;;;;;6.73;3.43;;;;;;;;;;5134802;27;20432;-66
2023/07/17 14:44:40;;;;;;;4.37;3.63;;;;;;;;;;5134558;27;20540;-65